Terminal Aerodrome Forecast
Issued by NWS

Home | Current Version | Previous Version | Text Only | Print | Product List | Glossary On
Versions: 1 2 3 4 5 6 7 8 9 10 11 12 13 14 15 16 17
000
FTUS43 KEAX 180800 AAA
TAFSTJ
TAF AMD
KSTJ 180854Z 1809/1906 VRB02KT P6SM OVC004
      TEMPO 1810/1813 2SM BR OVC002
     FM181400 09003KT 3SM BR OVC006
      TEMPO 1814/1815 1SM BR OVC002
     FM181800 11006KT P6SM SCT020
     FM190000 09005KT P6SM BKN020=

USA.gov is the U.S. government's official web portal to all federal, state and local government web resources and services.